sensor_id;sensor_type;location;lat;lon;timestamp;P1;durP1;ratioP1;P2;durP2;ratioP2
5791;SDS011;2922;53.482;10.006;2023-07-24T00:01:06;4.37;;;2.90;;
5791;SDS011;2922;53.482;10.006;2023-07-24T00:03:31;3.80;;;2.50;;
5791;SDS011;2922;53.482;10.006;2023-07-24T00:05:57;2.67;;;2.23;;
5791;SDS011;2922;53.482;10.006;2023-07-24T00:08:24;3.87;;;2.40;;
5791;SDS011;2922;53.482;10.006;2023-07-24T00:10:49;3.73;;;2.63;;
5791;SDS011;2922;53.482;10.006;2023-07-24T00:13:15;3.70;;;2.30;;
5791;SDS011;2922;53.482;10.006;2023-07-24T00:15:40;6.90;;;2.70;;
5791;SDS011;2922;53.482;10.006;2023-07-24T00:18:06;4.40;;;2.77;;
5791;SDS011;2922;53.482;10.006;2023-07-24T00:20:31;3.73;;;2.10;;
5791;SDS011;2922;53.482;10.006;2023-07-24T00:22:57;3.83;;;2.50;;
5791;SDS011;2922;53.482;10.006;2023-07-24T00:25:23;2.80;;;2.47;;
5791;SDS011;2922;53.482;10.006;2023-07-24T00:27:48;4.90;;;2.25;;
5791;SDS011;2922;53.482;10.006;2023-07-24T00:30:14;5.20;;;2.93;;
5791;SDS011;2922;53.482;10.006;2023-07-24T00:32:39;3.77;;;2.33;;
5791;SDS011;2922;53.482;10.006;2023-07-24T00:35:05;2.27;;;2.07;;
5791;SDS011;2922;53.482;10.006;2023-07-24T00:37:31;3.00;;;2.27;;
5791;SDS011;2922;53.482;10.006;2023-07-24T00:39:57;4.80;;;2.73;;
5791;SDS011;2922;53.482;10.006;2023-07-24T00:42:22;3.90;;;3.07;;
5791;SDS011;2922;53.482;10.006;2023-07-24T00:44:48;6.50;;;2.80;;
5791;SDS011;2922;53.482;10.006;2023-07-24T00:47:13;5.47;;;2.80;;
5791;SDS011;2922;53.482;10.006;2023-07-24T00:49:39;3.03;;;2.57;;
5791;SDS011;2922;53.482;10.006;2023-07-24T00:52:05;2.80;;;2.50;;
5791;SDS011;2922;53.482;10.006;2023-07-24T00:54:31;3.50;;;2.33;;
5791;SDS011;2922;53.482;10.006;2023-07-24T00:56:58;3.80;;;2.30;;
5791;SDS011;2922;53.482;10.006;2023-07-24T00:59:23;2.73;;;2.40;;
5791;SDS011;2922;53.482;10.006;2023-07-24T01:01:49;3.77;;;2.60;;
5791;SDS011;2922;53.482;10.006;2023-07-24T01:04:15;3.60;;;3.10;;
5791;SDS011;2922;53.482;10.006;2023-07-24T01:06:41;3.63;;;2.20;;
5791;SDS011;2922;53.482;10.006;2023-07-24T01:09:06;4.73;;;2.83;;
5791;SDS011;2922;53.482;10.006;2023-07-24T01:16:55;7.40;;;2.80;;
5791;SDS011;2922;53.482;10.006;2023-07-24T01:22:01;13.90;;;3.13;;
5791;SDS011;2922;53.482;10.006;2023-07-24T01:24:51;7.70;;;3.13;;
5791;SDS011;2922;53.482;10.006;2023-07-24T01:27:23;4.70;;;2.80;;
5791;SDS011;2922;53.482;10.006;2023-07-24T01:29:49;3.73;;;2.87;;
5791;SDS011;2922;53.482;10.006;2023-07-24T01:32:15;3.50;;;2.63;;
5791;SDS011;2922;53.482;10.006;2023-07-24T01:34:41;4.70;;;3.37;;
5791;SDS011;2922;53.482;10.006;2023-07-24T01:37:07;3.20;;;2.90;;
5791;SDS011;2922;53.482;10.006;2023-07-24T01:39:34;3.00;;;2.70;;
5791;SDS011;2922;53.482;10.006;2023-07-24T01:42:00;5.37;;;3.00;;
5791;SDS011;2922;53.482;10.006;2023-07-24T01:44:26;3.47;;;2.83;;
5791;SDS011;2922;53.482;10.006;2023-07-24T01:46:52;4.80;;;2.93;;
5791;SDS011;2922;53.482;10.006;2023-07-24T01:49:17;3.80;;;3.20;;
5791;SDS011;2922;53.482;10.006;2023-07-24T01:51:43;4.27;;;2.87;;
5791;SDS011;2922;53.482;10.006;2023-07-24T01:54:08;4.70;;;3.17;;
5791;SDS011;2922;53.482;10.006;2023-07-24T01:56:35;3.90;;;3.20;;
5791;SDS011;2922;53.482;10.006;2023-07-24T01:59:02;5.63;;;3.40;;
5791;SDS011;2922;53.482;10.006;2023-07-24T02:01:28;3.23;;;2.87;;
5791;SDS011;2922;53.482;10.006;2023-07-24T02:03:53;4.50;;;3.30;;
5791;SDS011;2922;53.482;10.006;2023-07-24T02:06:19;4.83;;;2.93;;
5791;SDS011;2922;53.482;10.006;2023-07-24T02:08:44;4.23;;;3.60;;
5791;SDS011;2922;53.482;10.006;2023-07-24T02:11:16;8.17;;;3.53;;
5791;SDS011;2922;53.482;10.006;2023-07-24T02:13:43;4.63;;;2.70;;
5791;SDS011;2922;53.482;10.006;2023-07-24T02:16:09;3.83;;;3.27;;
5791;SDS011;2922;53.482;10.006;2023-07-24T02:18:36;4.70;;;3.60;;
5791;SDS011;2922;53.482;10.006;2023-07-24T02:21:02;3.87;;;3.23;;
5791;SDS011;2922;53.482;10.006;2023-07-24T02:23:28;5.00;;;3.83;;
5791;SDS011;2922;53.482;10.006;2023-07-24T02:25:53;10.63;;;3.87;;
5791;SDS011;2922;53.482;10.006;2023-07-24T02:28:19;6.60;;;3.70;;
5791;SDS011;2922;53.482;10.006;2023-07-24T02:30:46;7.17;;;3.63;;
5791;SDS011;2922;53.482;10.006;2023-07-24T02:33:12;5.27;;;3.10;;
5791;SDS011;2922;53.482;10.006;2023-07-24T02:35:41;3.43;;;3.13;;
5791;SDS011;2922;53.482;10.006;2023-07-24T02:38:07;5.90;;;3.37;;
5791;SDS011;2922;53.482;10.006;2023-07-24T02:40:33;3.30;;;2.93;;
5791;SDS011;2922;53.482;10.006;2023-07-24T02:42:59;4.90;;;3.93;;
5791;SDS011;2922;53.482;10.006;2023-07-24T02:45:25;4.87;;;3.20;;
5791;SDS011;2922;53.482;10.006;2023-07-24T02:47:50;3.80;;;3.30;;
5791;SDS011;2922;53.482;10.006;2023-07-24T02:50:16;4.77;;;3.63;;
5791;SDS011;2922;53.482;10.006;2023-07-24T02:52:41;6.47;;;3.77;;
5791;SDS011;2922;53.482;10.006;2023-07-24T02:55:07;5.20;;;3.63;;
5791;SDS011;2922;53.482;10.006;2023-07-24T02:57:32;4.53;;;3.60;;
5791;SDS011;2922;53.482;10.006;2023-07-24T02:59:58;5.70;;;3.70;;
5791;SDS011;2922;53.482;10.006;2023-07-24T03:02:24;4.60;;;3.17;;
5791;SDS011;2922;53.482;10.006;2023-07-24T03:04:49;6.50;;;3.40;;
5791;SDS011;2922;53.482;10.006;2023-07-24T03:07:15;5.03;;;3.87;;
5791;SDS011;2922;53.482;10.006;2023-07-24T03:09:40;3.83;;;3.10;;
5791;SDS011;2922;53.482;10.006;2023-07-24T03:12:06;3.63;;;3.10;;
5791;SDS011;2922;53.482;10.006;2023-07-24T03:14:32;4.67;;;3.13;;
5791;SDS011;2922;53.482;10.006;2023-07-24T03:16:57;3.90;;;3.33;;
5791;SDS011;2922;53.482;10.006;2023-07-24T03:19:23;5.10;;;3.67;;
5791;SDS011;2922;53.482;10.006;2023-07-24T03:21:48;6.83;;;3.43;;
5791;SDS011;2922;53.482;10.006;2023-07-24T03:24:14;5.77;;;3.80;;
5791;SDS011;2922;53.482;10.006;2023-07-24T03:26:39;3.47;;;3.10;;
5791;SDS011;2922;53.482;10.006;2023-07-24T03:29:05;9.70;;;3.80;;
5791;SDS011;2922;53.482;10.006;2023-07-24T03:31:31;5.97;;;3.90;;
5791;SDS011;2922;53.482;10.006;2023-07-24T03:33:56;4.70;;;3.10;;
5791;SDS011;2922;53.482;10.006;2023-07-24T03:36:22;3.93;;;3.40;;
5791;SDS011;2922;53.482;10.006;2023-07-24T03:38:47;5.57;;;3.60;;
5791;SDS011;2922;53.482;10.006;2023-07-24T03:41:13;7.87;;;3.57;;
5791;SDS011;2922;53.482;10.006;2023-07-24T03:43:38;3.87;;;3.40;;
5791;SDS011;2922;53.482;10.006;2023-07-24T03:46:04;5.50;;;3.70;;
5791;SDS011;2922;53.482;10.006;2023-07-24T03:48:30;6.23;;;3.37;;
5791;SDS011;2922;53.482;10.006;2023-07-24T03:50:59;4.17;;;3.57;;
5791;SDS011;2922;53.482;10.006;2023-07-24T03:53:25;5.40;;;4.27;;
5791;SDS011;2922;53.482;10.006;2023-07-24T03:55:51;5.73;;;3.53;;
5791;SDS011;2922;53.482;10.006;2023-07-24T03:58:16;5.23;;;3.67;;
5791;SDS011;2922;53.482;10.006;2023-07-24T04:00:42;6.33;;;3.40;;
5791;SDS011;2922;53.482;10.006;2023-07-24T04:03:08;4.60;;;3.67;;
5791;SDS011;2922;53.482;10.006;2023-07-24T04:05:34;5.57;;;3.23;;
5791;SDS011;2922;53.482;10.006;2023-07-24T04:08:00;6.00;;;3.90;;
5791;SDS011;2922;53.482;10.006;2023-07-24T04:10:26;5.00;;;3.80;;
5791;SDS011;2922;53.482;10.006;2023-07-24T04:12:51;8.53;;;3.57;;
5791;SDS011;2922;53.482;10.006;2023-07-24T04:15:17;5.33;;;3.37;;
5791;SDS011;2922;53.482;10.006;2023-07-24T04:17:43;6.67;;;4.13;;
5791;SDS011;2922;53.482;10.006;2023-07-24T04:20:08;4.10;;;3.60;;
5791;SDS011;2922;53.482;10.006;2023-07-24T04:22:34;5.87;;;3.40;;
5791;SDS011;2922;53.482;10.006;2023-07-24T04:25:00;4.07;;;3.33;;
5791;SDS011;2922;53.482;10.006;2023-07-24T04:27:25;4.23;;;3.60;;
5791;SDS011;2922;53.482;10.006;2023-07-24T04:29:51;5.63;;;4.23;;
5791;SDS011;2922;53.482;10.006;2023-07-24T04:32:16;7.27;;;3.87;;
5791;SDS011;2922;53.482;10.006;2023-07-24T04:34:42;7.70;;;4.37;;
5791;SDS011;2922;53.482;10.006;2023-07-24T04:37:07;4.63;;;3.40;;
5791;SDS011;2922;53.482;10.006;2023-07-24T04:39:33;5.10;;;3.60;;
5791;SDS011;2922;53.482;10.006;2023-07-24T04:41:59;5.90;;;4.10;;
5791;SDS011;2922;53.482;10.006;2023-07-24T04:44:24;4.80;;;3.60;;
5791;SDS011;2922;53.482;10.006;2023-07-24T04:46:50;6.60;;;3.93;;
5791;SDS011;2922;53.482;10.006;2023-07-24T04:49:16;6.40;;;4.67;;
5791;SDS011;2922;53.482;10.006;2023-07-24T04:51:41;4.80;;;3.70;;
5791;SDS011;2922;53.482;10.006;2023-07-24T04:54:07;5.23;;;3.90;;
5791;SDS011;2922;53.482;10.006;2023-07-24T04:56:32;6.43;;;3.93;;
5791;SDS011;2922;53.482;10.006;2023-07-24T04:58:58;6.20;;;4.00;;
5791;SDS011;2922;53.482;10.006;2023-07-24T05:01:23;6.60;;;4.80;;
5791;SDS011;2922;53.482;10.006;2023-07-24T05:03:49;6.87;;;3.93;;
5791;SDS011;2922;53.482;10.006;2023-07-24T05:06:14;7.27;;;3.53;;
5791;SDS011;2922;53.482;10.006;2023-07-24T05:08:40;6.10;;;4.37;;
5791;SDS011;2922;53.482;10.006;2023-07-24T05:11:06;5.63;;;4.10;;
5791;SDS011;2922;53.482;10.006;2023-07-24T05:13:31;9.67;;;4.10;;
5791;SDS011;2922;53.482;10.006;2023-07-24T05:15:57;4.53;;;3.20;;
5791;SDS011;2922;53.482;10.006;2023-07-24T05:18:22;6.03;;;3.90;;
5791;SDS011;2922;53.482;10.006;2023-07-24T05:20:48;5.90;;;3.37;;
5791;SDS011;2922;53.482;10.006;2023-07-24T05:23:16;5.67;;;3.53;;
5791;SDS011;2922;53.482;10.006;2023-07-24T05:25:42;7.47;;;3.80;;
5791;SDS011;2922;53.482;10.006;2023-07-24T05:28:07;5.00;;;3.63;;
5791;SDS011;2922;53.482;10.006;2023-07-24T05:30:33;4.00;;;3.17;;
5791;SDS011;2922;53.482;10.006;2023-07-24T05:32:59;5.47;;;3.87;;
5791;SDS011;2922;53.482;10.006;2023-07-24T05:35:25;5.20;;;3.57;;
5791;SDS011;2922;53.482;10.006;2023-07-24T05:37:51;3.97;;;3.00;;
5791;SDS011;2922;53.482;10.006;2023-07-24T05:40:17;4.20;;;3.10;;
5791;SDS011;2922;53.482;10.006;2023-07-24T05:42:42;4.20;;;3.17;;
5791;SDS011;2922;53.482;10.006;2023-07-24T05:45:08;5.67;;;3.30;;
5791;SDS011;2922;53.482;10.006;2023-07-24T05:47:36;4.83;;;3.30;;
5791;SDS011;2922;53.482;10.006;2023-07-24T05:50:02;5.00;;;3.03;;
5791;SDS011;2922;53.482;10.006;2023-07-24T05:52:28;3.60;;;2.90;;
5791;SDS011;2922;53.482;10.006;2023-07-24T05:54:53;3.90;;;2.93;;
5791;SDS011;2922;53.482;10.006;2023-07-24T05:57:19;4.27;;;3.07;;
5791;SDS011;2922;53.482;10.006;2023-07-24T05:59:45;5.30;;;3.17;;
5791;SDS011;2922;53.482;10.006;2023-07-24T06:02:10;6.93;;;2.83;;
5791;SDS011;2922;53.482;10.006;2023-07-24T06:04:36;4.20;;;3.10;;
5791;SDS011;2922;53.482;10.006;2023-07-24T06:07:01;3.60;;;2.67;;
5791;SDS011;2922;53.482;10.006;2023-07-24T06:09:27;6.80;;;3.30;;
5791;SDS011;2922;53.482;10.006;2023-07-24T06:11:53;6.10;;;3.40;;
5791;SDS011;2922;53.482;10.006;2023-07-24T06:14:18;6.73;;;4.37;;
5791;SDS011;2922;53.482;10.006;2023-07-24T06:16:44;6.90;;;4.07;;
5791;SDS011;2922;53.482;10.006;2023-07-24T06:19:10;5.20;;;2.93;;
5791;SDS011;2922;53.482;10.006;2023-07-24T06:21:35;6.93;;;3.80;;
5791;SDS011;2922;53.482;10.006;2023-07-24T06:24:01;3.43;;;3.03;;
5791;SDS011;2922;53.482;10.006;2023-07-24T06:26:27;4.60;;;3.47;;
5791;SDS011;2922;53.482;10.006;2023-07-24T06:28:52;4.10;;;3.33;;
5791;SDS011;2922;53.482;10.006;2023-07-24T06:31:18;3.33;;;2.77;;
5791;SDS011;2922;53.482;10.006;2023-07-24T06:33:43;5.50;;;3.07;;
5791;SDS011;2922;53.482;10.006;2023-07-24T06:36:09;3.80;;;3.03;;
5791;SDS011;2922;53.482;10.006;2023-07-24T06:38:35;3.60;;;2.60;;
5791;SDS011;2922;53.482;10.006;2023-07-24T06:41:01;8.23;;;2.70;;
5791;SDS011;2922;53.482;10.006;2023-07-24T06:43:27;2.80;;;2.40;;
5791;SDS011;2922;53.482;10.006;2023-07-24T06:45:53;2.80;;;2.37;;
5791;SDS011;2922;53.482;10.006;2023-07-24T06:48:19;3.83;;;2.10;;
5791;SDS011;2922;53.482;10.006;2023-07-24T06:50:44;2.93;;;2.63;;
5791;SDS011;2922;53.482;10.006;2023-07-24T06:53:10;5.10;;;2.50;;
5791;SDS011;2922;53.482;10.006;2023-07-24T06:55:35;4.00;;;2.93;;
5791;SDS011;2922;53.482;10.006;2023-07-24T06:58:01;3.27;;;2.60;;
5791;SDS011;2922;53.482;10.006;2023-07-24T07:00:26;5.47;;;2.90;;
5791;SDS011;2922;53.482;10.006;2023-07-24T07:02:52;3.70;;;2.60;;
5791;SDS011;2922;53.482;10.006;2023-07-24T07:05:17;3.90;;;2.80;;
5791;SDS011;2922;53.482;10.006;2023-07-24T07:07:43;2.73;;;2.53;;
5791;SDS011;2922;53.482;10.006;2023-07-24T07:10:09;3.13;;;2.27;;
5791;SDS011;2922;53.482;10.006;2023-07-24T07:12:35;5.00;;;2.63;;
5791;SDS011;2922;53.482;10.006;2023-07-24T07:15:00;3.37;;;2.60;;
5791;SDS011;2922;53.482;10.006;2023-07-24T07:17:26;3.53;;;2.50;;
5791;SDS011;2922;53.482;10.006;2023-07-24T07:19:51;4.80;;;2.90;;
5791;SDS011;2922;53.482;10.006;2023-07-24T07:22:17;5.40;;;2.43;;
5791;SDS011;2922;53.482;10.006;2023-07-24T07:24:43;4.60;;;2.67;;
5791;SDS011;2922;53.482;10.006;2023-07-24T07:27:09;4.23;;;2.73;;
5791;SDS011;2922;53.482;10.006;2023-07-24T07:29:34;3.90;;;2.60;;
5791;SDS011;2922;53.482;10.006;2023-07-24T07:32:00;4.30;;;2.97;;
5791;SDS011;2922;53.482;10.006;2023-07-24T07:34:25;3.53;;;3.00;;
5791;SDS011;2922;53.482;10.006;2023-07-24T07:36:51;4.37;;;2.93;;
5791;SDS011;2922;53.482;10.006;2023-07-24T07:39:16;3.60;;;3.10;;
5791;SDS011;2922;53.482;10.006;2023-07-24T07:41:42;9.40;;;3.40;;
5791;SDS011;2922;53.482;10.006;2023-07-24T07:44:08;5.40;;;3.60;;
5791;SDS011;2922;53.482;10.006;2023-07-24T07:46:33;8.10;;;3.90;;
5791;SDS011;2922;53.482;10.006;2023-07-24T07:48:59;7.63;;;4.90;;
5791;SDS011;2922;53.482;10.006;2023-07-24T07:51:24;6.77;;;4.03;;
5791;SDS011;2922;53.482;10.006;2023-07-24T07:53:51;4.83;;;3.93;;
5791;SDS011;2922;53.482;10.006;2023-07-24T07:56:16;5.90;;;3.97;;
5791;SDS011;2922;53.482;10.006;2023-07-24T07:58:42;4.60;;;3.20;;
5791;SDS011;2922;53.482;10.006;2023-07-24T08:01:08;5.60;;;3.30;;
5791;SDS011;2922;53.482;10.006;2023-07-24T08:03:33;4.10;;;3.70;;
5791;SDS011;2922;53.482;10.006;2023-07-24T08:05:59;5.90;;;4.60;;
5791;SDS011;2922;53.482;10.006;2023-07-24T08:08:25;4.13;;;3.43;;
5791;SDS011;2922;53.482;10.006;2023-07-24T08:10:51;4.23;;;3.53;;
5791;SDS011;2922;53.482;10.006;2023-07-24T08:13:16;6.03;;;3.90;;
5791;SDS011;2922;53.482;10.006;2023-07-24T08:15:42;6.73;;;4.40;;
5791;SDS011;2922;53.482;10.006;2023-07-24T08:18:08;5.90;;;3.97;;
5791;SDS011;2922;53.482;10.006;2023-07-24T08:20:35;4.10;;;3.30;;
5791;SDS011;2922;53.482;10.006;2023-07-24T08:23:01;4.57;;;4.10;;
5791;SDS011;2922;53.482;10.006;2023-07-24T08:25:27;4.40;;;3.90;;
5791;SDS011;2922;53.482;10.006;2023-07-24T08:27:53;5.83;;;4.20;;
5791;SDS011;2922;53.482;10.006;2023-07-24T08:30:18;5.60;;;4.00;;
5791;SDS011;2922;53.482;10.006;2023-07-24T08:32:44;6.30;;;4.50;;
5791;SDS011;2922;53.482;10.006;2023-07-24T08:35:10;7.93;;;4.30;;
5791;SDS011;2922;53.482;10.006;2023-07-24T08:37:35;8.17;;;4.77;;
5791;SDS011;2922;53.482;10.006;2023-07-24T08:40:01;15.60;;;4.13;;
5791;SDS011;2922;53.482;10.006;2023-07-24T08:42:26;5.40;;;3.60;;
5791;SDS011;2922;53.482;10.006;2023-07-24T08:44:54;5.70;;;3.50;;
5791;SDS011;2922;53.482;10.006;2023-07-24T08:47:20;3.90;;;3.50;;
5791;SDS011;2922;53.482;10.006;2023-07-24T08:49:48;4.83;;;3.90;;
5791;SDS011;2922;53.482;10.006;2023-07-24T08:52:15;4.90;;;3.83;;
5791;SDS011;2922;53.482;10.006;2023-07-24T08:54:41;5.37;;;3.60;;
5791;SDS011;2922;53.482;10.006;2023-07-24T08:57:08;4.97;;;3.77;;
5791;SDS011;2922;53.482;10.006;2023-07-24T08:59:34;6.47;;;3.57;;
5791;SDS011;2922;53.482;10.006;2023-07-24T09:02:00;5.17;;;3.90;;
5791;SDS011;2922;53.482;10.006;2023-07-24T09:04:25;5.60;;;3.23;;
5791;SDS011;2922;53.482;10.006;2023-07-24T09:06:51;4.20;;;3.80;;
5791;SDS011;2922;53.482;10.006;2023-07-24T09:09:17;4.93;;;3.50;;
5791;SDS011;2922;53.482;10.006;2023-07-24T09:11:47;4.07;;;3.67;;
5791;SDS011;2922;53.482;10.006;2023-07-24T09:14:20;4.90;;;4.10;;
5791;SDS011;2922;53.482;10.006;2023-07-24T09:16:46;4.30;;;3.60;;
5791;SDS011;2922;53.482;10.006;2023-07-24T09:19:19;10.00;;;3.80;;
5791;SDS011;2922;53.482;10.006;2023-07-24T09:21:44;6.20;;;4.20;;
5791;SDS011;2922;53.482;10.006;2023-07-24T09:24:13;6.47;;;4.87;;
5791;SDS011;2922;53.482;10.006;2023-07-24T09:26:47;8.53;;;5.17;;
5791;SDS011;2922;53.482;10.006;2023-07-24T09:29:13;8.80;;;4.83;;
5791;SDS011;2922;53.482;10.006;2023-07-24T09:31:39;7.03;;;5.27;;
5791;SDS011;2922;53.482;10.006;2023-07-24T09:34:13;7.93;;;4.97;;
5791;SDS011;2922;53.482;10.006;2023-07-24T09:36:39;11.80;;;4.73;;
5791;SDS011;2922;53.482;10.006;2023-07-24T09:39:05;9.20;;;5.27;;
5791;SDS011;2922;53.482;10.006;2023-07-24T09:41:33;7.97;;;5.30;;
5791;SDS011;2922;53.482;10.006;2023-07-24T09:43:58;7.97;;;5.83;;
5791;SDS011;2922;53.482;10.006;2023-07-24T09:46:24;9.40;;;6.30;;
5791;SDS011;2922;53.482;10.006;2023-07-24T09:48:49;7.33;;;6.10;;
5791;SDS011;2922;53.482;10.006;2023-07-24T09:51:16;5.80;;;5.20;;
5791;SDS011;2922;53.482;10.006;2023-07-24T09:54:29;9.03;;;5.93;;
5791;SDS011;2922;53.482;10.006;2023-07-24T09:56:34;6.63;;;5.83;;
5791;SDS011;2922;53.482;10.006;2023-07-24T09:59:01;8.53;;;5.50;;
5791;SDS011;2922;53.482;10.006;2023-07-24T10:01:27;7.00;;;5.57;;
5791;SDS011;2922;53.482;10.006;2023-07-24T10:03:54;7.20;;;5.73;;
5791;SDS011;2922;53.482;10.006;2023-07-24T10:06:20;7.23;;;6.33;;
5791;SDS011;2922;53.482;10.006;2023-07-24T10:08:47;6.97;;;5.90;;
5791;SDS011;2922;53.482;10.006;2023-07-24T10:11:13;9.10;;;6.67;;
5791;SDS011;2922;53.482;10.006;2023-07-24T10:13:39;9.60;;;6.97;;
5791;SDS011;2922;53.482;10.006;2023-07-24T10:16:06;8.70;;;6.67;;
5791;SDS011;2922;53.482;10.006;2023-07-24T10:18:33;11.03;;;7.23;;
5791;SDS011;2922;53.482;10.006;2023-07-24T10:21:04;11.53;;;8.20;;
5791;SDS011;2922;53.482;10.006;2023-07-24T10:23:34;11.30;;;7.17;;
5791;SDS011;2922;53.482;10.006;2023-07-24T10:26:04;8.70;;;7.00;;
5791;SDS011;2922;53.482;10.006;2023-07-24T10:28:32;9.07;;;6.40;;
5791;SDS011;2922;53.482;10.006;2023-07-24T10:30:59;7.23;;;6.07;;
5791;SDS011;2922;53.482;10.006;2023-07-24T10:33:29;8.73;;;6.10;;
5791;SDS011;2922;53.482;10.006;2023-07-24T10:36:05;7.50;;;6.20;;
5791;SDS011;2922;53.482;10.006;2023-07-24T10:38:37;7.83;;;6.47;;
5791;SDS011;2922;53.482;10.006;2023-07-24T10:41:05;6.80;;;6.03;;
5791;SDS011;2922;53.482;10.006;2023-07-24T10:43:41;12.90;;;6.37;;
5791;SDS011;2922;53.482;10.006;2023-07-24T10:46:07;7.13;;;5.90;;
5791;SDS011;2922;53.482;10.006;2023-07-24T10:48:33;8.20;;;6.67;;
5791;SDS011;2922;53.482;10.006;2023-07-24T10:51:05;11.73;;;6.00;;
5791;SDS011;2922;53.482;10.006;2023-07-24T10:53:32;7.23;;;6.07;;
5791;SDS011;2922;53.482;10.006;2023-07-24T10:56:00;8.00;;;6.33;;
5791;SDS011;2922;53.482;10.006;2023-07-24T10:58:26;9.00;;;6.10;;
5791;SDS011;2922;53.482;10.006;2023-07-24T11:00:52;6.00;;;5.40;;
5791;SDS011;2922;53.482;10.006;2023-07-24T11:03:17;7.27;;;6.57;;
5791;SDS011;2922;53.482;10.006;2023-07-24T11:05:45;10.63;;;7.07;;
5791;SDS011;2922;53.482;10.006;2023-07-24T11:08:18;8.20;;;6.13;;
5791;SDS011;2922;53.482;10.006;2023-07-24T11:10:45;9.67;;;6.03;;
5791;SDS011;2922;53.482;10.006;2023-07-24T11:13:12;7.20;;;6.20;;
5791;SDS011;2922;53.482;10.006;2023-07-24T11:15:38;6.70;;;6.10;;
5791;SDS011;2922;53.482;10.006;2023-07-24T11:18:04;7.13;;;5.93;;
5791;SDS011;2922;53.482;10.006;2023-07-24T11:20:33;19.50;;;8.33;;
5791;SDS011;2922;53.482;10.006;2023-07-24T11:23:11;7.30;;;6.07;;
5791;SDS011;2922;53.482;10.006;2023-07-24T11:25:37;6.97;;;6.27;;
5791;SDS011;2922;53.482;10.006;2023-07-24T11:28:05;9.60;;;7.60;;
5791;SDS011;2922;53.482;10.006;2023-07-24T11:30:31;8.10;;;7.30;;
5791;SDS011;2922;53.482;10.006;2023-07-24T11:32:57;8.77;;;7.87;;
5791;SDS011;2922;53.482;10.006;2023-07-24T11:35:26;12.00;;;8.20;;
5791;SDS011;2922;53.482;10.006;2023-07-24T11:37:51;14.93;;;10.20;;
5791;SDS011;2922;53.482;10.006;2023-07-24T11:40:17;7.10;;;6.40;;
5791;SDS011;2922;53.482;10.006;2023-07-24T11:42:45;6.77;;;6.00;;
5791;SDS011;2922;53.482;10.006;2023-07-24T11:45:14;5.90;;;5.40;;
5791;SDS011;2922;53.482;10.006;2023-07-24T11:47:46;5.80;;;5.17;;
5791;SDS011;2922;53.482;10.006;2023-07-24T11:50:13;6.80;;;4.53;;
5791;SDS011;2922;53.482;10.006;2023-07-24T11:52:49;7.63;;;5.00;;
5791;SDS011;2922;53.482;10.006;2023-07-24T11:55:19;6.70;;;5.30;;
5791;SDS011;2922;53.482;10.006;2023-07-24T11:57:58;5.33;;;4.60;;
5791;SDS011;2922;53.482;10.006;2023-07-24T12:00:25;4.40;;;4.00;;
5791;SDS011;2922;53.482;10.006;2023-07-24T12:02:51;4.60;;;4.20;;
5791;SDS011;2922;53.482;10.006;2023-07-24T12:05:17;3.73;;;3.43;;
5791;SDS011;2922;53.482;10.006;2023-07-24T12:07:43;5.33;;;3.67;;
5791;SDS011;2922;53.482;10.006;2023-07-24T12:10:12;4.50;;;3.73;;
5791;SDS011;2922;53.482;10.006;2023-07-24T12:12:49;4.40;;;2.80;;
5791;SDS011;2922;53.482;10.006;2023-07-24T12:15:14;3.87;;;2.83;;
5791;SDS011;2922;53.482;10.006;2023-07-24T12:17:40;3.90;;;3.00;;
5791;SDS011;2922;53.482;10.006;2023-07-24T12:20:06;5.73;;;3.27;;
5791;SDS011;2922;53.482;10.006;2023-07-24T12:22:34;3.53;;;3.00;;
5791;SDS011;2922;53.482;10.006;2023-07-24T12:25:01;4.03;;;3.37;;
5791;SDS011;2922;53.482;10.006;2023-07-24T12:27:27;5.17;;;2.80;;
5791;SDS011;2922;53.482;10.006;2023-07-24T12:29:53;4.00;;;3.57;;
5791;SDS011;2922;53.482;10.006;2023-07-24T12:32:18;4.67;;;3.57;;
5791;SDS011;2922;53.482;10.006;2023-07-24T12:34:48;4.00;;;3.60;;
5791;SDS011;2922;53.482;10.006;2023-07-24T12:37:16;7.70;;;3.33;;
5791;SDS011;2922;53.482;10.006;2023-07-24T12:39:44;4.20;;;3.80;;
5791;SDS011;2922;53.482;10.006;2023-07-24T12:42:10;3.57;;;3.10;;
5791;SDS011;2922;53.482;10.006;2023-07-24T12:44:36;4.57;;;3.37;;
5791;SDS011;2922;53.482;10.006;2023-07-24T12:47:02;5.57;;;4.23;;
5791;SDS011;2922;53.482;10.006;2023-07-24T12:49:28;4.10;;;3.40;;
5791;SDS011;2922;53.482;10.006;2023-07-24T12:51:54;3.63;;;3.33;;
5791;SDS011;2922;53.482;10.006;2023-07-24T12:54:19;4.63;;;3.80;;
5791;SDS011;2922;53.482;10.006;2023-07-24T12:56:46;4.07;;;3.60;;
5791;SDS011;2922;53.482;10.006;2023-07-24T12:59:12;7.95;;;3.35;;
5791;SDS011;2922;53.482;10.006;2023-07-24T13:01:38;4.10;;;3.30;;
5791;SDS011;2922;53.482;10.006;2023-07-24T13:04:03;4.60;;;3.43;;
5791;SDS011;2922;53.482;10.006;2023-07-24T13:06:29;7.63;;;4.10;;
5791;SDS011;2922;53.482;10.006;2023-07-24T13:08:54;4.20;;;3.73;;
5791;SDS011;2922;53.482;10.006;2023-07-24T13:11:20;5.57;;;4.23;;
5791;SDS011;2922;53.482;10.006;2023-07-24T13:13:46;6.13;;;3.37;;
5791;SDS011;2922;53.482;10.006;2023-07-24T13:16:12;6.87;;;3.90;;
5791;SDS011;2922;53.482;10.006;2023-07-24T13:18:37;4.90;;;3.50;;
5791;SDS011;2922;53.482;10.006;2023-07-24T13:21:03;5.13;;;2.87;;
5791;SDS011;2922;53.482;10.006;2023-07-24T13:23:31;3.87;;;3.30;;
5791;SDS011;2922;53.482;10.006;2023-07-24T13:25:56;5.27;;;3.33;;
5791;SDS011;2922;53.482;10.006;2023-07-24T13:28:22;3.60;;;3.20;;
5791;SDS011;2922;53.482;10.006;2023-07-24T13:30:47;4.90;;;3.60;;
5791;SDS011;2922;53.482;10.006;2023-07-24T13:33:13;5.40;;;3.33;;
5791;SDS011;2922;53.482;10.006;2023-07-24T13:35:39;4.17;;;3.63;;
5791;SDS011;2922;53.482;10.006;2023-07-24T13:38:04;4.23;;;3.50;;
5791;SDS011;2922;53.482;10.006;2023-07-24T13:40:30;4.27;;;3.30;;
5791;SDS011;2922;53.482;10.006;2023-07-24T13:42:55;6.10;;;3.50;;
5791;SDS011;2922;53.482;10.006;2023-07-24T13:45:21;5.70;;;3.50;;
5791;SDS011;2922;53.482;10.006;2023-07-24T13:47:46;4.13;;;3.73;;
5791;SDS011;2922;53.482;10.006;2023-07-24T13:50:12;4.17;;;3.77;;
5791;SDS011;2922;53.482;10.006;2023-07-24T13:52:37;4.03;;;3.63;;
5791;SDS011;2922;53.482;10.006;2023-07-24T13:55:04;3.97;;;3.57;;
5791;SDS011;2922;53.482;10.006;2023-07-24T13:57:29;4.20;;;3.00;;
5791;SDS011;2922;53.482;10.006;2023-07-24T13:59:55;3.60;;;3.30;;
5791;SDS011;2922;53.482;10.006;2023-07-24T14:02:20;3.67;;;3.30;;
5791;SDS011;2922;53.482;10.006;2023-07-24T14:04:46;4.83;;;3.90;;
5791;SDS011;2922;53.482;10.006;2023-07-24T14:07:11;4.77;;;3.60;;
5791;SDS011;2922;53.482;10.006;2023-07-24T14:09:38;4.17;;;3.53;;
5791;SDS011;2922;53.482;10.006;2023-07-24T14:12:04;4.23;;;3.53;;
5791;SDS011;2922;53.482;10.006;2023-07-24T14:14:30;4.27;;;3.40;;
5791;SDS011;2922;53.482;10.006;2023-07-24T14:16:56;4.47;;;3.53;;
5791;SDS011;2922;53.482;10.006;2023-07-24T14:19:21;3.67;;;3.23;;
5791;SDS011;2922;53.482;10.006;2023-07-24T14:21:48;6.80;;;3.47;;
5791;SDS011;2922;53.482;10.006;2023-07-24T14:24:15;4.53;;;3.50;;
5791;SDS011;2922;53.482;10.006;2023-07-24T14:26:40;4.37;;;3.50;;
5791;SDS011;2922;53.482;10.006;2023-07-24T14:29:06;4.10;;;3.50;;
5791;SDS011;2922;53.482;10.006;2023-07-24T14:31:31;3.90;;;3.47;;
5791;SDS011;2922;53.482;10.006;2023-07-24T14:33:57;5.07;;;3.00;;
5791;SDS011;2922;53.482;10.006;2023-07-24T14:36:23;4.50;;;3.70;;
5791;SDS011;2922;53.482;10.006;2023-07-24T14:38:48;7.67;;;3.90;;
5791;SDS011;2922;53.482;10.006;2023-07-24T14:41:15;5.07;;;3.97;;
5791;SDS011;2922;53.482;10.006;2023-07-24T14:43:41;4.80;;;4.20;;
5791;SDS011;2922;53.482;10.006;2023-07-24T14:46:07;4.63;;;4.00;;
5791;SDS011;2922;53.482;10.006;2023-07-24T14:48:32;5.33;;;4.43;;
5791;SDS011;2922;53.482;10.006;2023-07-24T14:50:58;5.97;;;4.70;;
5791;SDS011;2922;53.482;10.006;2023-07-24T14:53:24;5.60;;;4.20;;
5791;SDS011;2922;53.482;10.006;2023-07-24T14:55:50;4.97;;;4.47;;
5791;SDS011;2922;53.482;10.006;2023-07-24T14:58:15;5.60;;;4.00;;
5791;SDS011;2922;53.482;10.006;2023-07-24T15:00:41;7.60;;;4.33;;
5791;SDS011;2922;53.482;10.006;2023-07-24T15:03:06;4.77;;;4.13;;